Metar Cercanos

 

LEPA - Palma De Mallorc, Spain
Distance from station: ONO 38km
Actualización: Sun, 04-Dec-2022 3:30pm CET
Muy nuboso
Muy nuboso
 Viento del SO
Viento: SO 24 km/h
Temperatura: 18°C
Rocío: 13°C
Humedad: 73%
Barómetro: 1011 hPa
Clouds: Muy nuboso
Visibility: 10 km
Cloud details: Muy nuboso 914 m
2022/12/04 14:30 LEPA 041430Z 23013KT 9999 BKN030 18/13 Q1011 NOSIG
LEMH - Mahon/Menorca Is, Spain
Distance from station: ENE 105km
Actualización: Sun, 04-Dec-2022 3:30pm CET
Parcialmente nuboso
Parcialmente nuboso
 Viento del SSO
Viento: SSO 22 km/h
Temperatura: 16°C
Rocío: 12°C
Humedad: 77%
Barómetro: 1011 hPa
Clouds: Parcialmente nuboso
Visibility: 10 km
Cloud details: Parcialmente nuboso 671 m
2022/12/04 14:30 LEMH 041430Z 21012KT 190V250 9999 SCT022 16/12 Q1011
 
LEIB - Ibiza/Es Codola, Spain
Distance from station: OSO 165km
Actualización: Sun, 04-Dec-2022 3:30pm CET
Few Clouds
Few Clouds
 Viento del OSO
Viento: OSO 11 km/h
Temperatura: 17°C
Rocío: 13°C
Humedad: 77%
Barómetro: 1011 hPa
Clouds: Few Clouds
Visibility: 10 km
Cloud details: Few Clouds 610 m
2022/12/04 14:30 LEIB 041430Z 25006KT 220V280 9999 FEW020 17/13 Q1011 NOSIG
LEBL - Barcelona Airpor, Spain
Distance from station: NNO 225km
Actualización: Sun, 04-Dec-2022 3:30pm CET
Few Clouds
Few Clouds
 Viento del varies
Viento: varies 2 km/h
Temperatura: 12°C
Rocío: 6°C
Humedad: 67%
Barómetro: 1010 hPa
Clouds: Few Clouds
Visibility: 10 km
Cloud details: Few Clouds 914 m
2022/12/04 14:30 LEBL 041430Z VRB01KT 9999 FEW030 12/06 Q1010 NOSIG
 
LEVC - Valencia (civ/Mi, Spain
Distance from station: NO 188km
Actualización: Sun, 04-Dec-2022 3:30pm CET
Few Clouds
Few Clouds
 Viento del E
Viento: E 11 km/h
Temperatura: 17°C
Rocío: 8°C
Humedad: 56%
Barómetro: 1009 hPa
Clouds: Few Clouds
Visibility: 10 km
Cloud details: Few Clouds 1372 m
2022/12/04 14:30 LEVC 041430Z 09006KT 050V120 9999 FEW045 17/08 Q1009 NOSIG
LEGE - Gerona/Costa Bra, Spain
Distance from station: N 276km
Actualización: Sun, 04-Dec-2022 3:30pm CET
Few Clouds
Few Clouds
 Viento del S
Viento: S 9 km/h
Clouds: Few Clouds
Visibility: 10 km
Cloud details: Few Clouds 2134 m
2022/12/04 14:30 LEGE 041430Z 19005KT 160V240 9999 FEW070 14/0
 
LEAL - Alicante/El Alte, Spain
Distance from station: OSO 344km
Actualización: Sun, 04-Dec-2022 3:30pm CET
Few Clouds
Few Clouds
 Viento del E
Viento: E 13 km/h
Temperatura: 17°C
Rocío: 12°C
Humedad: 73%
Barómetro: 1010 hPa
Clouds: Few Clouds
Visibility: 10 km
Cloud details: Few Clouds 792 m
2022/12/04 14:30 LEAL 041430Z 09007KT 9999 FEW026 17/12 Q1010 NOSIG
LEAM - Almeria Airport, Spain
Distance from station: SSO 56km
Actualización: Sun, 04-Dec-2022 3:30pm CET
Parcialmente nuboso
Parcialmente nuboso
 Viento del SSO
Viento: SSO 15 km/h
Temperatura: 19°C
Rocío: 13°C
Humedad: 68%
Barómetro: 1010 hPa
Clouds: Parcialmente nuboso
Visibility: 10 km
Cloud details: Few Clouds 1829 m
Parcialmente nuboso 2743 m
2022/12/04 14:30 LEAM 041430Z 20008KT 9999 FEW060 SCT090 19/13 Q1010
 
LEZG - Zaragoza (mil/Ci, Spain
Distance from station: NO 431km
Actualización: Sun, 04-Dec-2022 3:30pm CET
Parcialmente nuboso
Parcialmente nuboso
 Viento del NNE
Viento: NNE 6 km/h
Temperatura: 7°C
Rocío: 3°C
Humedad: 76%
Barómetro: 1012 hPa
Clouds: Parcialmente nuboso
Visibility: 7 km
Cloud details: Parcialmente nuboso 488 m
2022/12/04 14:30 LEZG 041430Z 02003KT 300V080 7000 SCT016 07/03 Q1012
LEMD - Madrid/Barajas, Spain
Distance from station: ONO 234km
Actualización: Sun, 04-Dec-2022 3:30pm CET
Light drizzle, Cubierto
Light drizzle, Cubierto
 Viento del calm
Viento: Calma
Temperatura: 7°C
Rocío: 5°C
Humedad: 87%
Barómetro: 1010 hPa
Resumen: Light Drizzle
Clouds: Cubierto
Visibility: 10 km
Cloud details: Muy nuboso 335 m
Cubierto 1524 m
2022/12/04 14:30 LEMD 041430Z 00000KT 9999 -DZ BKN011 OVC050 07/05 Q1010 NOSIG
 
LEGR - Granada Airport, Spain
Distance from station: OSO 62km
Actualización: Sun, 04-Dec-2022 3:30pm CET
Muy nuboso
Muy nuboso
 Viento del NNO
Viento: NNO 6 km/h
Temperatura: 16°C
Rocío: 10°C
Humedad: 68%
Barómetro: 1010 hPa
Clouds: Muy nuboso
Visibility: 10 km
Cloud details: Few Clouds 914 m
Muy nuboso 2012 m
2022/12/04 14:30 LEGR 041430Z 34003KT 280V030 9999 FEW030 BKN066 16/10 Q1010
LEMG - Malaga (civ/Mil), Spain
Distance from station: OSO 227km
Actualización: Sun, 04-Dec-2022 3:30pm CET
Muy nuboso
Muy nuboso
 Viento del S
Viento: S 7 km/h
Temperatura: 16°C
Rocío: 11°C
Humedad: 72%
Barómetro: 1010 hPa
Clouds: Muy nuboso
Visibility: 10 km
Cloud details: Few Clouds 610 m
Muy nuboso 1311 m
2022/12/04 14:30 LEMG 041430Z 17004KT 130V220 9999 FEW020 BKN043 16/11 Q1010 NOSIG
 
LEZL - Sevilla (civ/Mil, Spain
Distance from station: S 318km
Actualización: Sun, 04-Dec-2022 3:30pm CET
Few Clouds
Few Clouds
 Viento del N
Viento: N 2 km/h
Temperatura: 18°C
Rocío: 9°C
Humedad: 56%
Barómetro: 1009 hPa
Clouds: Few Clouds
Visibility: 10 km
Cloud details: Few Clouds 1067 m
2022/12/04 14:30 LEZL 041430Z 35001KT 9999 FEW035 18/09 Q1009 NOSIG
LEVT - Vitoria, Spain
Distance from station: NO 226km
Actualización: Sun, 04-Dec-2022 3:30pm CET
Few Clouds
Few Clouds
 Viento del OSO
Viento: OSO 9 km/h
Temperatura: 6°C
Sensación frio: 4°C
Rocío: 1°C
Humedad: 71%
Barómetro: 1009 hPa
Clouds: Few Clouds
Visibility: 10 km
Cloud details: Few Clouds 1067 m
2022/12/04 14:30 LEVT 041430Z 24005KT 170V300 9999 FEW035 06/01 Q1009
 
LEBB - Bilbao/Sondica, Spain
Distance from station: NNO 235km
Actualización: Sun, 04-Dec-2022 3:30pm CET
Despejado
Despejado
 Viento del SE
Viento: SE 7 km/h
Temperatura: 12°C
Rocío: 3°C
Humedad: 54%
Barómetro: 1010 hPa
Resumen: Despejado
Visibility: greater than 10 km
2022/12/04 14:30 LEBB 041430Z 13004KT 110V170 CAVOK 12/03 Q1010 NOSIG
LESO - San Sebastian/Fu, Spain
Distance from station: N 231km
Actualización: Sun, 04-Dec-2022 3:30pm CET
Despejado
Despejado
 Viento del S
Viento: S 11 km/h
Temperatura: 11°C
Rocío: 3°C
Humedad: 58%
Barómetro: 1010 hPa
Resumen: Despejado
Visibility: greater than 10 km
2022/12/04 14:30 LESO 041430Z 18006KT 110V230 CAVOK 11/03 Q1010
 
LEVD - Valladolid(Mil/C, Spain
Distance from station: ONO 239km
Actualización: Sun, 04-Dec-2022 3:30pm CET
Muy nuboso
Muy nuboso
 Viento del SE
Viento: SE 6 km/h
Temperatura: 5°C
Rocío: 2°C
Humedad: 81%
Barómetro: 1008 hPa
Clouds: Muy nuboso
Visibility: 10 km
Cloud details: Muy nuboso 884 m
2022/12/04 14:30 LEVD 041430Z 13003KT 100V160 9999 BKN029 05/02 Q1008
LESA - Salamanca (civ/M, Spain
Distance from station: ONO 349km
Actualización: Sun, 04-Dec-2022 3:30pm CET
Muy nuboso
Muy nuboso
 Viento del varies
Viento: varies 4 km/h
Temperatura: 8°C
Rocío: 6°C
Humedad: 87%
Barómetro: 1008 hPa
Clouds: Muy nuboso
Visibility: 9 km
Cloud details: Parcialmente nuboso 457 m
Muy nuboso 610 m
Muy nuboso 1219 m
2022/12/04 14:30 LESA 041430Z VRB02KT 9000 SCT015 BKN020 BKN040 08/06 Q1008
 
LEXJ - Santander/Paraya, Spain
Distance from station: NNO 247km
Actualización: Sun, 04-Dec-2022 3:30pm CET
Few Clouds
Few Clouds
 Viento del varies
Viento: varies 2 km/h
Temperatura: 13°C
Rocío: 1°C
Humedad: 44%
Barómetro: 1009 hPa
Clouds: Few Clouds
Visibility: 10 km
Cloud details: Few Clouds 1067 m
2022/12/04 14:30 LEXJ 041430Z VRB01KT 9999 FEW035 13/01 Q1009
LEAS - Asturias/Aviles, Spain
Distance from station: NO 214km
Actualización: Sun, 04-Dec-2022 3:30pm CET
Few Clouds
Few Clouds
 Viento del varies
Viento: varies 4 km/h
Temperatura: 11°C
Rocío: 4°C
Humedad: 62%
Barómetro: 1008 hPa
Clouds: Few Clouds
Visibility: 10 km
Cloud details: Few Clouds 1372 m
2022/12/04 14:30 LEAS 041430Z VRB02KT 9999 FEW045 11/04 Q1008 NOSIG
 
LECO - La Coruna/Alvedr, Spain
Distance from station: ONO 222km
Actualización: Sun, 04-Dec-2022 3:30pm CET
Despejado
Despejado
 Viento del varies
Viento: varies 2 km/h
Temperatura: 13°C
Rocío: 4°C
Humedad: 55%
Barómetro: 1007 hPa
Resumen: Despejado
Visibility: greater than 10 km
2022/12/04 14:30 LECO 041430Z VRB01KT CAVOK 13/04 Q1007 NOSIG
LEVX - Vigo/Peinador, Spain
Distance from station: O 214km
Actualización: Sun, 04-Dec-2022 3:30pm CET
Muy nuboso
Muy nuboso
 Viento del SSO
Viento: SSO 11 km/h
Temperatura: 7°C
Sensación frio: 5°C
Rocío: 3°C
Humedad: 76%
Barómetro: 1007 hPa
Clouds: Muy nuboso
Visibility: 10 km
Cloud details: Muy nuboso 488 m
Muy nuboso 853 m
2022/12/04 14:30 LEVX 041430Z 21006KT 9999 BKN016 BKN028 07/03 Q1007 NOSIG